createdAt,value
2018-07-06T00:00:52.603Z,19.02
2018-07-06T00:03:32.559Z,19.11
2018-07-06T00:06:12.475Z,19.01
2018-07-06T00:08:52.429Z,18.94
2018-07-06T00:11:32.377Z,18.98
2018-07-06T00:14:12.398Z,19.00
2018-07-06T00:16:52.278Z,19.07
2018-07-06T00:19:32.449Z,18.97
2018-07-06T00:22:12.590Z,18.86
2018-07-06T00:24:52.582Z,18.74
2018-07-06T00:27:32.503Z,18.81
2018-07-06T00:30:12.450Z,18.78
2018-07-06T00:32:52.394Z,18.78
2018-07-06T00:35:32.345Z,18.84
2018-07-06T00:38:12.085Z,18.89
2018-07-06T00:40:52.046Z,18.85
2018-07-06T00:43:31.990Z,18.70
2018-07-06T00:46:11.946Z,18.70
2018-07-06T00:48:51.737Z,18.80
2018-07-06T00:51:31.633Z,18.89
2018-07-06T00:54:11.378Z,18.99
2018-07-06T00:56:51.361Z,18.97
2018-07-06T00:59:31.337Z,19.17
2018-07-06T01:02:11.469Z,19.28
2018-07-06T01:04:51.430Z,19.28
2018-07-06T01:07:31.362Z,19.26
2018-07-06T01:10:11.155Z,19.18
2018-07-06T01:12:56.073Z,19.08
2018-07-06T01:15:36.921Z,19.03
2018-07-06T01:18:18.359Z,19.04
2018-07-06T01:20:58.464Z,19.12
2018-07-06T01:23:38.475Z,19.14
2018-07-06T01:26:18.973Z,19.19
2018-07-06T01:28:59.334Z,19.18
2018-07-06T01:31:39.273Z,19.24
2018-07-06T01:34:19.025Z,19.13
2018-07-06T01:36:58.982Z,19.06
2018-07-06T01:39:39.153Z,19.03
2018-07-06T01:42:19.085Z,18.99
2018-07-06T01:44:59.039Z,18.97
2018-07-06T01:47:38.930Z,18.85
2018-07-06T01:50:18.730Z,18.81
2018-07-06T01:52:58.482Z,18.76
2018-07-06T01:55:38.425Z,18.68
2018-07-06T01:58:18.189Z,18.74
2018-07-06T02:00:58.120Z,18.81
2018-07-06T02:03:38.069Z,18.89
2018-07-06T02:06:18.021Z,18.90
2018-07-06T02:08:57.776Z,18.82
2018-07-06T02:11:37.924Z,18.76
2018-07-06T02:14:17.713Z,18.69
2018-07-06T02:16:57.617Z,18.76
2018-07-06T02:19:37.610Z,18.78
2018-07-06T02:22:17.520Z,18.77
2018-07-06T02:24:57.504Z,18.74
2018-07-06T02:27:37.213Z,18.70
2018-07-06T02:30:17.193Z,18.66
2018-07-06T02:32:57.326Z,18.70
2018-07-06T02:35:37.104Z,18.70
2018-07-06T02:38:17.017Z,18.73
2018-07-06T02:40:57.207Z,18.77
2018-07-06T02:43:36.914Z,18.88
2018-07-06T02:46:16.901Z,18.79
2018-07-06T02:48:56.608Z,18.71
2018-07-06T02:51:36.581Z,18.64
2018-07-06T02:54:16.717Z,18.57
2018-07-06T02:56:56.706Z,18.50
2018-07-06T02:59:36.613Z,18.46
2018-07-06T03:02:16.601Z,18.55
2018-07-06T03:04:56.729Z,18.59
2018-07-06T03:07:36.905Z,18.50
2018-07-06T03:10:16.831Z,18.41
2018-07-06T03:12:56.773Z,18.32
2018-07-06T03:15:36.739Z,18.30
2018-07-06T03:18:16.501Z,18.32
2018-07-06T03:20:56.438Z,18.37
2018-07-06T03:23:36.383Z,18.41
2018-07-06T03:26:16.325Z,18.58
2018-07-06T03:28:56.273Z,18.58
2018-07-06T03:31:36.232Z,18.73
2018-07-06T03:34:16.239Z,18.70
2018-07-06T03:36:56.135Z,18.75
2018-07-06T03:39:35.897Z,18.77
2018-07-06T03:42:15.829Z,18.92
2018-07-06T03:44:55.835Z,19.10
2018-07-06T03:47:35.748Z,19.25
2018-07-06T03:50:15.745Z,19.33
2018-07-06T03:52:55.421Z,19.49
2018-07-06T03:55:35.402Z,19.47
2018-07-06T03:58:15.339Z,19.43
2018-07-06T04:00:55.297Z,19.53
2018-07-06T04:03:35.226Z,19.63
2018-07-06T04:06:15.211Z,19.57
2018-07-06T04:08:55.137Z,19.68
2018-07-06T04:11:35.684Z,19.83
2018-07-06T04:14:15.652Z,19.92
2018-07-06T04:16:55.630Z,20.19
2018-07-06T04:19:35.737Z,20.41
2018-07-06T04:22:15.521Z,20.87
2018-07-06T04:24:55.443Z,21.06
2018-07-06T04:27:35.221Z,21.17
2018-07-06T04:30:14.925Z,21.47
2018-07-06T04:32:54.909Z,21.96
2018-07-06T04:35:34.832Z,22.48
2018-07-06T04:38:14.813Z,23.19
2018-07-06T04:40:54.520Z,23.85
2018-07-06T04:43:34.473Z,25.41
2018-07-06T04:46:14.435Z,27.56
2018-07-06T04:48:54.373Z,28.37
2018-07-06T04:51:34.326Z,29.59
2018-07-06T04:54:14.278Z,30.61
2018-07-06T04:56:54.021Z,30.88
2018-07-06T04:59:34.001Z,31.40
2018-07-06T05:02:13.917Z,32.02
2018-07-06T05:04:53.903Z,32.56
2018-07-06T05:07:33.826Z,32.65
2018-07-06T05:10:13.808Z,33.47
2018-07-06T05:12:53.731Z,34.37
2018-07-06T05:15:33.501Z,34.51
2018-07-06T05:18:13.427Z,34.75
2018-07-06T05:20:53.372Z,35.35
2018-07-06T05:23:33.334Z,35.85
2018-07-06T05:26:13.274Z,34.66
2018-07-06T05:28:53.218Z,35.44
2018-07-06T05:31:33.374Z,35.64
2018-07-06T05:34:13.125Z,35.58
2018-07-06T05:36:53.134Z,36.15
2018-07-06T05:39:33.035Z,35.71
2018-07-06T05:42:12.769Z,36.86
2018-07-06T05:44:52.717Z,36.54
2018-07-06T05:47:32.673Z,35.76
2018-07-06T05:50:12.872Z,37.22
2018-07-06T05:52:52.696Z,37.66
2018-07-06T05:55:32.721Z,37.42
2018-07-06T05:58:12.677Z,37.35
2018-07-06T06:00:52.666Z,36.90
2018-07-06T06:03:32.577Z,36.19
2018-07-06T06:06:12.334Z,36.94
2018-07-06T06:08:39.777Z,37.47
2018-07-06T06:11:09.100Z,37.71
2018-07-06T06:13:38.398Z,37.51
2018-07-06T06:16:07.526Z,38.42
2018-07-06T06:18:36.811Z,37.73
2018-07-06T06:21:06.006Z,38.53
2018-07-06T06:23:35.372Z,38.33
2018-07-06T06:26:04.480Z,39.18
2018-07-06T06:28:33.646Z,39.74
2018-07-06T06:31:02.645Z,39.81
2018-07-06T06:33:31.838Z,39.30
2018-07-06T06:36:00.907Z,39.32
2018-07-06T06:38:29.992Z,39.21
2018-07-06T06:40:59.109Z,39.01
2018-07-06T06:43:28.173Z,39.55
2018-07-06T06:45:57.416Z,39.38
2018-07-06T06:48:26.578Z,38.87
2018-07-06T06:50:55.824Z,37.81
2018-07-06T06:53:25.551Z,38.76
2018-07-06T06:55:54.265Z,39.50
2018-07-06T06:58:22.979Z,40.15
2018-07-06T07:00:52.222Z,40.50
2018-07-06T07:03:21.294Z,40.38
2018-07-06T07:05:50.245Z,39.96
2018-07-06T07:08:19.546Z,40.76
2018-07-06T07:10:48.806Z,41.44
2018-07-06T07:13:17.950Z,42.72
2018-07-06T07:15:47.135Z,42.42
2018-07-06T07:18:16.381Z,42.79
2018-07-06T07:20:45.401Z,41.37
2018-07-06T07:23:14.542Z,40.90
2018-07-06T07:25:43.967Z,39.78
2018-07-06T07:28:13.138Z,39.83
2018-07-06T07:30:42.228Z,39.86
2018-07-06T07:33:11.320Z,40.61
2018-07-06T07:35:40.435Z,40.07
2018-07-06T07:38:09.304Z,40.21
2018-07-06T07:40:38.393Z,39.80
2018-07-06T07:43:07.529Z,40.14
2018-07-06T07:45:36.697Z,39.68
2018-07-06T07:48:05.898Z,39.61
2018-07-06T07:50:34.990Z,40.73
2018-07-06T07:53:15.117Z,41.24
2018-07-06T07:55:44.395Z,40.58
2018-07-06T07:58:13.571Z,40.77
2018-07-06T08:00:42.725Z,38.08
2018-07-06T08:03:11.547Z,38.10
2018-07-06T08:05:40.570Z,38.85
2018-07-06T08:08:09.710Z,39.57
2018-07-06T08:10:39.711Z,39.14
2018-07-06T08:13:08.945Z,39.12
2018-07-06T08:15:37.927Z,39.35
2018-07-06T08:18:07.277Z,40.01
2018-07-06T08:20:36.518Z,39.50
2018-07-06T08:23:05.752Z,39.43
2018-07-06T08:25:35.030Z,40.11
2018-07-06T08:28:04.128Z,40.30
2018-07-06T08:30:33.344Z,40.43
2018-07-06T08:33:02.293Z,39.82
2018-07-06T08:35:42.030Z,39.41
2018-07-06T08:38:10.950Z,40.16
2018-07-06T08:40:40.194Z,39.39
2018-07-06T08:43:09.389Z,39.24
2018-07-06T08:45:38.595Z,39.09
2018-07-06T08:48:07.773Z,39.66
2018-07-06T08:50:37.977Z,38.64
2018-07-06T08:53:07.257Z,40.16
2018-07-06T08:55:36.018Z,40.80
2018-07-06T08:58:04.994Z,40.40
2018-07-06T09:00:33.993Z,40.75
2018-07-06T09:03:03.134Z,39.88
2018-07-06T09:05:32.337Z,39.46
2018-07-06T09:08:01.587Z,39.49
2018-07-06T09:10:30.555Z,39.40
2018-07-06T09:12:59.837Z,39.23
2018-07-06T09:15:28.978Z,39.26
2018-07-06T09:17:58.103Z,39.34
2018-07-06T09:20:26.808Z,38.83
2018-07-06T09:22:56.050Z,37.55
2018-07-06T09:25:25.473Z,38.15
2018-07-06T09:27:54.528Z,39.05
2018-07-06T09:30:23.642Z,40.02
2018-07-06T09:32:52.810Z,39.77
2018-07-06T09:35:22.384Z,40.15
2018-07-06T09:37:52.589Z,41.07
2018-07-06T09:40:21.687Z,40.60
2018-07-06T09:42:50.817Z,41.31
2018-07-06T09:45:20.358Z,41.50
2018-07-06T09:47:49.522Z,40.56
2018-07-06T09:50:18.804Z,38.57
2018-07-06T09:52:47.650Z,36.49
2018-07-06T09:55:16.805Z,36.59
2018-07-06T09:57:46.353Z,37.72
2018-07-06T10:01:17.968Z,38.69
2018-07-06T10:03:47.289Z,37.16
2018-07-06T10:06:16.487Z,35.76
2018-07-06T10:08:45.680Z,34.49
2018-07-06T10:11:14.646Z,34.45
2018-07-06T10:13:43.674Z,35.27
2018-07-06T10:16:12.757Z,37.23
2018-07-06T10:18:41.958Z,37.91
2018-07-06T10:21:11.175Z,37.34
2018-07-06T10:23:40.153Z,35.68
2018-07-06T10:26:09.214Z,34.90
2018-07-06T10:30:56.172Z,34.06
2018-07-06T10:33:25.194Z,34.39
2018-07-06T10:35:54.150Z,34.00
2018-07-06T10:38:23.184Z,33.68
2018-07-06T10:40:52.324Z,33.48
2018-07-06T10:43:21.651Z,33.76
2018-07-06T10:48:24.965Z,37.36
2018-07-06T10:50:54.438Z,37.03
2018-07-06T10:53:23.152Z,35.93
2018-07-06T10:55:51.846Z,34.60
2018-07-06T10:58:20.622Z,34.51
2018-07-06T11:00:49.727Z,36.07
2018-07-06T11:03:18.629Z,36.05
2018-07-06T11:05:47.849Z,35.53
2018-07-06T11:08:16.549Z,35.17
2018-07-06T11:10:45.236Z,34.85
2018-07-06T11:13:13.973Z,34.73
2018-07-06T11:15:42.854Z,35.85
2018-07-06T11:18:11.573Z,37.37
2018-07-06T11:20:40.291Z,38.22
2018-07-06T11:23:09.137Z,37.97
2018-07-06T11:25:37.915Z,37.98
2018-07-06T11:28:07.388Z,37.94
2018-07-06T11:30:36.153Z,38.72
2018-07-06T11:33:04.904Z,39.06
2018-07-06T11:35:33.668Z,39.41
2018-07-06T11:38:02.462Z,39.36
2018-07-06T11:40:31.237Z,40.23
2018-07-06T11:43:00.223Z,39.23
2018-07-06T11:45:28.999Z,39.92
2018-07-06T11:47:58.059Z,39.76
2018-07-06T11:50:26.954Z,40.50
2018-07-06T11:52:55.783Z,40.41
2018-07-06T11:55:24.534Z,41.19
2018-07-06T11:57:53.257Z,40.49
2018-07-06T12:00:22.154Z,38.57
2018-07-06T12:02:50.893Z,38.42
2018-07-06T12:05:19.659Z,38.78
2018-07-06T12:07:48.357Z,38.92
2018-07-06T12:10:17.075Z,38.79
2018-07-06T12:12:45.819Z,38.58
2018-07-06T12:15:14.524Z,39.68
2018-07-06T12:17:43.234Z,40.75
2018-07-06T12:20:11.954Z,41.60
2018-07-06T12:22:41.041Z,41.67
2018-07-06T12:25:10.056Z,41.47
2018-07-06T12:27:38.874Z,41.38
2018-07-06T12:30:07.669Z,41.51
2018-07-06T12:32:36.450Z,40.72
2018-07-06T12:35:05.248Z,39.68
2018-07-06T12:37:33.949Z,37.51
2018-07-06T12:40:02.706Z,36.84
2018-07-06T12:42:31.404Z,35.80
2018-07-06T12:45:00.158Z,35.32
2018-07-06T12:47:28.902Z,34.68
2018-07-06T12:49:57.973Z,34.49
2018-07-06T12:52:26.698Z,34.23
2018-07-06T12:54:55.405Z,34.07
2018-07-06T12:57:24.223Z,33.92
2018-07-06T12:59:52.951Z,33.50
2018-07-06T13:02:21.661Z,33.45
2018-07-06T13:04:50.599Z,33.54
2018-07-06T13:07:19.485Z,33.43
2018-07-06T13:09:48.261Z,33.28
2018-07-06T13:12:17.038Z,33.35
2018-07-06T13:14:45.850Z,33.33
2018-07-06T13:17:15.049Z,33.42
2018-07-06T13:19:44.147Z,33.27
2018-07-06T13:22:13.319Z,33.23
2018-07-06T13:24:42.042Z,32.91
2018-07-06T13:27:10.755Z,32.91
2018-07-06T13:29:39.496Z,33.05
2018-07-06T13:32:08.213Z,33.08
2018-07-06T13:34:36.953Z,33.16
2018-07-06T13:37:05.701Z,33.13
2018-07-06T13:39:34.418Z,33.03
2018-07-06T13:42:03.161Z,33.15
2018-07-06T13:44:31.879Z,33.24
2018-07-06T13:47:00.777Z,33.23
2018-07-06T13:49:29.593Z,33.27
2018-07-06T13:51:58.317Z,33.33
2018-07-06T13:54:27.037Z,33.28
2018-07-06T13:56:55.769Z,33.12
2018-07-06T13:59:24.562Z,33.08
2018-07-06T14:01:53.278Z,33.08
2018-07-06T14:04:22.046Z,33.19
2018-07-06T14:06:50.762Z,33.03
2018-07-06T14:09:19.466Z,32.76
2018-07-06T14:11:48.263Z,32.61
2018-07-06T14:14:17.104Z,32.48
2018-07-06T14:16:45.860Z,32.31
2018-07-06T14:19:14.585Z,32.39
2018-07-06T14:21:43.353Z,32.27
2018-07-06T14:24:12.060Z,32.22
2018-07-06T14:26:40.766Z,32.27
2018-07-06T14:29:09.481Z,32.23
2018-07-06T14:31:38.210Z,32.19
2018-07-06T14:34:06.946Z,32.10
2018-07-06T14:36:35.660Z,32.04
2018-07-06T14:39:05.303Z,31.91
2018-07-06T14:41:34.022Z,31.94
2018-07-06T14:44:03.013Z,31.99
2018-07-06T14:46:31.785Z,31.97
2018-07-06T14:49:00.593Z,32.08
2018-07-06T14:51:29.499Z,31.82
2018-07-06T14:53:58.505Z,31.77
2018-07-06T14:56:27.392Z,31.92
2018-07-06T14:58:56.253Z,31.78
2018-07-06T15:01:25.201Z,31.59
2018-07-06T15:03:53.937Z,31.51
2018-07-06T15:06:22.728Z,31.31
2018-07-06T15:08:51.567Z,31.25
2018-07-06T15:11:20.306Z,31.29
2018-07-06T15:13:49.070Z,31.17
2018-07-06T15:16:24.303Z,31.18
2018-07-06T15:18:53.054Z,31.10
2018-07-06T15:21:21.786Z,31.11
2018-07-06T15:23:50.502Z,31.11
2018-07-06T15:26:19.364Z,31.09
2018-07-06T15:28:48.430Z,31.04
2018-07-06T15:31:17.587Z,30.94
2018-07-06T15:33:46.262Z,30.85
2018-07-06T15:36:15.023Z,30.76
2018-07-06T15:38:43.729Z,30.69
2018-07-06T15:41:12.455Z,30.60
2018-07-06T15:43:41.219Z,30.52
2018-07-06T15:46:09.970Z,30.36
2018-07-06T15:48:38.899Z,30.32
2018-07-06T15:51:07.754Z,30.19
2018-07-06T15:53:37.759Z,30.19
2018-07-06T15:56:06.761Z,30.11
2018-07-06T15:58:35.611Z,30.11
2018-07-06T16:01:04.539Z,30.08
2018-07-06T16:03:33.305Z,30.02
2018-07-06T16:06:02.034Z,30.09
2018-07-06T16:08:30.955Z,30.11
2018-07-06T16:10:59.692Z,30.16
2018-07-06T16:13:28.786Z,30.20
2018-07-06T16:15:57.531Z,30.18
2018-07-06T16:18:26.269Z,30.02
2018-07-06T16:20:55.122Z,29.85
2018-07-06T16:23:23.774Z,29.74
2018-07-06T16:25:52.527Z,29.62
2018-07-06T16:28:21.266Z,29.50
2018-07-06T16:30:50.171Z,29.31
2018-07-06T16:33:18.906Z,29.16
2018-07-06T16:35:47.685Z,29.04
2018-07-06T16:38:16.404Z,28.91
2018-07-06T16:40:45.106Z,28.79
2018-07-06T16:43:13.843Z,28.74
2018-07-06T16:45:42.544Z,28.63
2018-07-06T16:48:11.269Z,28.51
2018-07-06T16:50:39.980Z,28.38
2018-07-06T16:53:08.718Z,28.16
2018-07-06T16:55:37.491Z,28.01
2018-07-06T16:58:06.217Z,27.97
2018-07-06T17:00:34.999Z,27.89
2018-07-06T17:03:03.767Z,27.78
2018-07-06T17:05:32.505Z,27.72
2018-07-06T17:08:01.371Z,27.58
2018-07-06T17:10:30.142Z,27.43
2018-07-06T17:13:00.013Z,27.28
2018-07-06T17:15:28.839Z,27.17
2018-07-06T17:17:58.027Z,27.06
2018-07-06T17:20:26.832Z,26.96
2018-07-06T17:22:55.582Z,26.81
2018-07-06T17:25:24.341Z,26.68
2018-07-06T17:27:53.161Z,26.49
2018-07-06T17:30:21.961Z,26.38
2018-07-06T17:32:55.327Z,26.28
2018-07-06T17:35:29.582Z,26.11
2018-07-06T17:38:02.057Z,25.95
2018-07-06T17:40:35.110Z,25.82
2018-07-06T17:43:09.280Z,25.70
2018-07-06T17:45:38.174Z,25.49
2018-07-06T17:48:07.241Z,25.35
2018-07-06T17:50:36.025Z,25.18
2018-07-06T17:53:04.738Z,25.06
2018-07-06T17:55:33.507Z,24.95
2018-07-06T17:58:02.194Z,24.74
2018-07-06T18:00:30.924Z,24.57
2018-07-06T18:02:59.648Z,24.44
2018-07-06T18:05:28.393Z,24.28
2018-07-06T18:07:57.121Z,24.14
2018-07-06T18:10:25.837Z,24.01
2018-07-06T18:12:54.784Z,23.84
2018-07-06T18:15:23.490Z,23.74
2018-07-06T18:17:52.342Z,23.70
2018-07-06T18:20:21.086Z,23.66
2018-07-06T18:22:50.212Z,23.51
2018-07-06T18:25:18.921Z,23.42
2018-07-06T18:27:47.638Z,23.28
2018-07-06T18:30:16.429Z,23.17
2018-07-06T18:32:45.170Z,23.12
2018-07-06T18:35:14.113Z,23.08
2018-07-06T18:37:42.872Z,23.08
2018-07-06T18:40:11.773Z,22.96
2018-07-06T18:42:40.499Z,22.85
2018-07-06T18:45:09.231Z,22.85
2018-07-06T18:47:37.999Z,22.82
2018-07-06T18:50:06.747Z,22.75
2018-07-06T18:52:35.486Z,22.73
2018-07-06T18:55:04.178Z,22.65
2018-07-06T18:57:32.881Z,22.60
2018-07-06T19:00:02.169Z,22.52
2018-07-06T19:02:30.990Z,22.45
2018-07-06T19:04:59.772Z,22.44
2018-07-06T19:07:28.468Z,22.38
2018-07-06T19:09:57.225Z,22.34
2018-07-06T19:12:25.931Z,22.16
2018-07-06T19:14:54.659Z,22.16
2018-07-06T19:17:23.406Z,22.07
2018-07-06T19:19:52.134Z,22.01
2018-07-06T19:22:20.880Z,21.91
2018-07-06T19:24:49.608Z,21.81
2018-07-06T19:27:18.417Z,21.85
2018-07-06T19:29:47.150Z,21.86
2018-07-06T19:32:15.876Z,21.91
2018-07-06T19:34:44.621Z,21.89
2018-07-06T19:37:13.373Z,21.82
2018-07-06T19:39:42.130Z,21.78
2018-07-06T19:42:10.856Z,21.64
2018-07-06T19:44:40.249Z,21.60
2018-07-06T19:47:09.218Z,21.56
2018-07-06T19:49:38.043Z,21.54
2018-07-06T19:52:06.875Z,21.51
2018-07-06T19:54:35.575Z,21.47
2018-07-06T19:57:04.313Z,21.42
2018-07-06T19:59:33.122Z,21.43
2018-07-06T20:02:01.930Z,21.31
2018-07-06T20:04:30.741Z,21.20
2018-07-06T20:06:59.593Z,21.22
2018-07-06T20:09:28.417Z,21.21
2018-07-06T20:11:57.181Z,21.18
2018-07-06T20:14:25.952Z,21.25
2018-07-06T20:16:54.758Z,21.23
2018-07-06T20:19:25.316Z,21.15
2018-07-06T20:21:54.578Z,21.10
2018-07-06T20:24:23.642Z,21.00
2018-07-06T20:26:52.416Z,20.91
2018-07-06T20:29:21.125Z,20.87
2018-07-06T20:31:49.965Z,20.81
2018-07-06T20:34:18.960Z,20.85
2018-07-06T20:36:47.702Z,20.86
2018-07-06T20:39:16.425Z,20.84
2018-07-06T20:41:45.166Z,20.76
2018-07-06T20:44:14.067Z,20.64
2018-07-06T20:46:42.848Z,20.64
2018-07-06T20:49:11.569Z,20.61
2018-07-06T20:51:40.282Z,20.60
2018-07-06T20:54:09.313Z,20.59
2018-07-06T20:56:38.139Z,20.59
2018-07-06T20:59:06.905Z,20.60
2018-07-06T21:01:35.846Z,20.57
2018-07-06T21:04:04.708Z,20.47
2018-07-06T21:06:33.454Z,20.32
2018-07-06T21:09:02.321Z,20.26
2018-07-06T21:11:31.206Z,20.29
2018-07-06T21:13:59.974Z,20.33
2018-07-06T21:16:28.705Z,20.33
2018-07-06T21:18:57.522Z,20.48
2018-07-06T21:21:26.433Z,20.44
2018-07-06T21:23:55.213Z,20.33
2018-07-06T21:26:23.962Z,20.38
2018-07-06T21:28:52.867Z,20.41
2018-07-06T21:31:21.597Z,20.45
2018-07-06T21:33:50.313Z,20.52
2018-07-06T21:36:19.275Z,20.53
2018-07-06T21:38:47.985Z,20.51
2018-07-06T21:41:16.786Z,20.59
2018-07-06T21:43:45.514Z,20.51
2018-07-06T21:46:14.251Z,20.45
2018-07-06T21:48:43.034Z,20.33
2018-07-06T21:51:11.877Z,20.30
2018-07-06T21:53:40.749Z,20.20
2018-07-06T21:56:09.487Z,20.13
2018-07-06T21:58:38.254Z,20.10
2018-07-06T22:01:07.298Z,20.03
2018-07-06T22:03:36.014Z,19.99
2018-07-06T22:06:04.748Z,19.95
2018-07-06T22:08:33.467Z,19.95
2018-07-06T22:11:02.358Z,19.88
2018-07-06T22:13:31.229Z,19.90
2018-07-06T22:15:59.949Z,19.97
2018-07-06T22:18:28.660Z,20.03
2018-07-06T22:20:57.370Z,19.99
2018-07-06T22:23:26.074Z,19.99
2018-07-06T22:25:54.789Z,19.95
2018-07-06T22:28:23.487Z,19.93
2018-07-06T22:30:52.177Z,19.88
2018-07-06T22:33:20.967Z,19.86
2018-07-06T22:35:49.701Z,19.89
2018-07-06T22:38:18.474Z,19.79
2018-07-06T22:40:47.236Z,19.74
2018-07-06T22:43:16.112Z,19.71
2018-07-06T22:45:45.427Z,19.69
2018-07-06T22:48:14.139Z,19.68
2018-07-06T22:50:42.866Z,19.62
2018-07-06T22:53:11.806Z,19.67
2018-07-06T22:55:40.960Z,19.61
2018-07-06T22:58:09.668Z,19.59
2018-07-06T23:00:38.901Z,19.61
2018-07-06T23:03:07.982Z,19.59
2018-07-06T23:05:37.236Z,19.57
2018-07-06T23:08:06.374Z,19.54
2018-07-06T23:10:35.214Z,19.50
2018-07-06T23:13:03.938Z,19.40
2018-07-06T23:15:32.685Z,19.44
2018-07-06T23:18:01.401Z,19.39
2018-07-06T23:20:30.113Z,19.31
2018-07-06T23:23:15.494Z,19.31
2018-07-06T23:25:46.273Z,19.30
2018-07-06T23:28:15.513Z,19.32
2018-07-06T23:30:44.457Z,19.30
2018-07-06T23:33:13.809Z,19.31
2018-07-06T23:35:42.920Z,19.28
2018-07-06T23:38:12.234Z,19.21
2018-07-06T23:40:41.325Z,19.20
2018-07-06T23:43:10.345Z,19.17
2018-07-06T23:45:39.241Z,19.07
2018-07-06T23:48:08.369Z,19.11
2018-07-06T23:50:37.470Z,19.09
2018-07-06T23:53:06.985Z,19.09
2018-07-06T23:55:36.077Z,19.01
2018-07-06T23:58:05.345Z,19.04
